sensor_id;sensor_type;location;lat;lon;timestamp;P1;durP1;ratioP1;P2;durP2;ratioP2
28170;SDS011;15458;53.346;-1.688;2023-12-14T00:01:21;6.63;;;2.88;;
28170;SDS011;15458;53.346;-1.688;2023-12-14T00:03:47;7.85;;;2.72;;
28170;SDS011;15458;53.346;-1.688;2023-12-14T00:06:13;7.22;;;2.97;;
28170;SDS011;15458;53.346;-1.688;2023-12-14T00:08:39;6.75;;;2.42;;
28170;SDS011;15458;53.346;-1.688;2023-12-14T00:11:05;8.57;;;2.40;;
28170;SDS011;15458;53.346;-1.688;2023-12-14T00:13:35;6.45;;;2.63;;
28170;SDS011;15458;53.346;-1.688;2023-12-14T00:16:02;9.95;;;3.00;;
28170;SDS011;15458;53.346;-1.688;2023-12-14T00:18:28;7.07;;;2.28;;
28170;SDS011;15458;53.346;-1.688;2023-12-14T00:20:53;8.43;;;2.05;;
28170;SDS011;15458;53.346;-1.688;2023-12-14T00:23:19;6.78;;;2.50;;
28170;SDS011;15458;53.346;-1.688;2023-12-14T00:25:46;7.15;;;2.67;;
28170;SDS011;15458;53.346;-1.688;2023-12-14T00:28:11;10.68;;;2.78;;
28170;SDS011;15458;53.346;-1.688;2023-12-14T00:30:37;11.82;;;3.83;;
28170;SDS011;15458;53.346;-1.688;2023-12-14T00:33:03;14.73;;;4.28;;
28170;SDS011;15458;53.346;-1.688;2023-12-14T00:35:29;14.98;;;3.97;;
28170;SDS011;15458;53.346;-1.688;2023-12-14T00:37:55;9.73;;;3.30;;
28170;SDS011;15458;53.346;-1.688;2023-12-14T00:40:20;11.18;;;3.58;;
28170;SDS011;15458;53.346;-1.688;2023-12-14T00:42:46;9.40;;;3.22;;
28170;SDS011;15458;53.346;-1.688;2023-12-14T00:45:12;9.07;;;3.05;;
28170;SDS011;15458;53.346;-1.688;2023-12-14T00:47:37;6.53;;;2.70;;
28170;SDS011;15458;53.346;-1.688;2023-12-14T00:50:04;7.25;;;2.50;;
28170;SDS011;15458;53.346;-1.688;2023-12-14T00:52:29;8.50;;;2.55;;
28170;SDS011;15458;53.346;-1.688;2023-12-14T00:54:58;4.47;;;1.90;;
28170;SDS011;15458;53.346;-1.688;2023-12-14T00:57:24;5.72;;;2.45;;
28170;SDS011;15458;53.346;-1.688;2023-12-14T00:59:50;9.52;;;2.42;;
28170;SDS011;15458;53.346;-1.688;2023-12-14T01:02:15;7.70;;;2.00;;
28170;SDS011;15458;53.346;-1.688;2023-12-14T01:04:41;8.93;;;2.38;;
28170;SDS011;15458;53.346;-1.688;2023-12-14T01:07:07;5.32;;;2.30;;
28170;SDS011;15458;53.346;-1.688;2023-12-14T01:09:33;6.13;;;2.30;;
28170;SDS011;15458;53.346;-1.688;2023-12-14T01:11:59;8.23;;;3.85;;
28170;SDS011;15458;53.346;-1.688;2023-12-14T01:14:25;5.55;;;2.40;;
28170;SDS011;15458;53.346;-1.688;2023-12-14T01:16:50;5.57;;;2.17;;
28170;SDS011;15458;53.346;-1.688;2023-12-14T01:19:16;6.95;;;2.22;;
28170;SDS011;15458;53.346;-1.688;2023-12-14T01:21:42;9.05;;;2.25;;
28170;SDS011;15458;53.346;-1.688;2023-12-14T01:24:08;7.72;;;2.53;;
28170;SDS011;15458;53.346;-1.688;2023-12-14T01:26:33;5.18;;;2.38;;
28170;SDS011;15458;53.346;-1.688;2023-12-14T01:28:59;7.63;;;2.80;;
28170;SDS011;15458;53.346;-1.688;2023-12-14T01:31:25;8.32;;;2.70;;
28170;SDS011;15458;53.346;-1.688;2023-12-14T01:33:51;6.47;;;2.13;;
28170;SDS011;15458;53.346;-1.688;2023-12-14T01:36:24;6.32;;;2.20;;
28170;SDS011;15458;53.346;-1.688;2023-12-14T01:38:51;5.30;;;1.80;;
28170;SDS011;15458;53.346;-1.688;2023-12-14T01:41:17;7.93;;;1.92;;
28170;SDS011;15458;53.346;-1.688;2023-12-14T01:43:44;6.60;;;1.63;;
28170;SDS011;15458;53.346;-1.688;2023-12-14T01:46:10;9.25;;;1.90;;
28170;SDS011;15458;53.346;-1.688;2023-12-14T01:48:36;3.58;;;1.77;;
28170;SDS011;15458;53.346;-1.688;2023-12-14T01:51:02;11.73;;;2.72;;
28170;SDS011;15458;53.346;-1.688;2023-12-14T01:53:28;5.35;;;2.22;;
28170;SDS011;15458;53.346;-1.688;2023-12-14T01:55:54;9.43;;;3.35;;
28170;SDS011;15458;53.346;-1.688;2023-12-14T01:58:20;8.02;;;3.47;;
28170;SDS011;15458;53.346;-1.688;2023-12-14T02:00:48;11.63;;;4.03;;
28170;SDS011;15458;53.346;-1.688;2023-12-14T02:03:23;10.48;;;4.30;;
28170;SDS011;15458;53.346;-1.688;2023-12-14T02:05:49;10.63;;;4.40;;
28170;SDS011;15458;53.346;-1.688;2023-12-14T02:08:14;9.98;;;3.85;;
28170;SDS011;15458;53.346;-1.688;2023-12-14T02:10:40;9.68;;;4.53;;
28170;SDS011;15458;53.346;-1.688;2023-12-14T02:13:06;7.30;;;3.85;;
28170;SDS011;15458;53.346;-1.688;2023-12-14T02:15:32;18.30;;;5.40;;
28170;SDS011;15458;53.346;-1.688;2023-12-14T02:17:58;8.77;;;3.88;;
28170;SDS011;15458;53.346;-1.688;2023-12-14T02:20:23;6.93;;;3.22;;
28170;SDS011;15458;53.346;-1.688;2023-12-14T02:22:50;9.25;;;3.53;;
28170;SDS011;15458;53.346;-1.688;2023-12-14T02:25:18;9.20;;;3.75;;
28170;SDS011;15458;53.346;-1.688;2023-12-14T02:27:45;7.30;;;3.05;;
28170;SDS011;15458;53.346;-1.688;2023-12-14T02:30:11;10.85;;;2.90;;
28170;SDS011;15458;53.346;-1.688;2023-12-14T02:32:37;7.80;;;2.65;;
28170;SDS011;15458;53.346;-1.688;2023-12-14T02:35:07;6.63;;;2.67;;
28170;SDS011;15458;53.346;-1.688;2023-12-14T02:37:33;9.02;;;2.88;;
28170;SDS011;15458;53.346;-1.688;2023-12-14T02:40:02;9.48;;;3.20;;
28170;SDS011;15458;53.346;-1.688;2023-12-14T02:42:28;9.07;;;4.07;;
28170;SDS011;15458;53.346;-1.688;2023-12-14T02:44:54;10.73;;;4.32;;
28170;SDS011;15458;53.346;-1.688;2023-12-14T02:47:21;10.27;;;4.70;;
28170;SDS011;15458;53.346;-1.688;2023-12-14T02:49:46;12.90;;;4.95;;
28170;SDS011;15458;53.346;-1.688;2023-12-14T02:52:12;10.90;;;5.05;;
28170;SDS011;15458;53.346;-1.688;2023-12-14T02:54:38;10.95;;;4.28;;
28170;SDS011;15458;53.346;-1.688;2023-12-14T02:57:04;16.63;;;4.68;;
28170;SDS011;15458;53.346;-1.688;2023-12-14T02:59:30;14.57;;;5.22;;
28170;SDS011;15458;53.346;-1.688;2023-12-14T03:01:56;10.57;;;4.45;;
28170;SDS011;15458;53.346;-1.688;2023-12-14T03:04:22;12.63;;;4.70;;
28170;SDS011;15458;53.346;-1.688;2023-12-14T03:06:50;9.98;;;4.45;;
28170;SDS011;15458;53.346;-1.688;2023-12-14T03:09:16;14.82;;;4.63;;
28170;SDS011;15458;53.346;-1.688;2023-12-14T03:11:44;10.30;;;3.72;;
28170;SDS011;15458;53.346;-1.688;2023-12-14T03:14:10;8.35;;;3.70;;
28170;SDS011;15458;53.346;-1.688;2023-12-14T03:16:36;8.77;;;3.80;;
28170;SDS011;15458;53.346;-1.688;2023-12-14T03:19:01;11.07;;;3.72;;
28170;SDS011;15458;53.346;-1.688;2023-12-14T03:21:28;10.77;;;3.97;;
28170;SDS011;15458;53.346;-1.688;2023-12-14T03:23:54;10.77;;;3.97;;
28170;SDS011;15458;53.346;-1.688;2023-12-14T03:26:20;7.15;;;4.22;;
28170;SDS011;15458;53.346;-1.688;2023-12-14T03:28:46;11.07;;;4.20;;
28170;SDS011;15458;53.346;-1.688;2023-12-14T03:31:12;9.10;;;3.47;;
28170;SDS011;15458;53.346;-1.688;2023-12-14T03:33:43;9.65;;;3.60;;
28170;SDS011;15458;53.346;-1.688;2023-12-14T03:36:08;9.10;;;3.60;;
28170;SDS011;15458;53.346;-1.688;2023-12-14T03:38:34;15.02;;;3.30;;
28170;SDS011;15458;53.346;-1.688;2023-12-14T03:41:01;8.85;;;3.85;;
28170;SDS011;15458;53.346;-1.688;2023-12-14T03:43:27;10.00;;;3.78;;
28170;SDS011;15458;53.346;-1.688;2023-12-14T03:45:53;11.13;;;3.20;;
28170;SDS011;15458;53.346;-1.688;2023-12-14T03:48:19;9.25;;;3.50;;
28170;SDS011;15458;53.346;-1.688;2023-12-14T03:50:44;8.88;;;3.25;;
28170;SDS011;15458;53.346;-1.688;2023-12-14T03:53:10;10.23;;;3.88;;
28170;SDS011;15458;53.346;-1.688;2023-12-14T03:55:35;7.70;;;3.75;;
28170;SDS011;15458;53.346;-1.688;2023-12-14T03:58:01;7.43;;;3.58;;
28170;SDS011;15458;53.346;-1.688;2023-12-14T04:00:27;10.45;;;3.17;;
28170;SDS011;15458;53.346;-1.688;2023-12-14T04:02:52;6.82;;;3.08;;
28170;SDS011;15458;53.346;-1.688;2023-12-14T04:05:18;13.35;;;4.30;;
28170;SDS011;15458;53.346;-1.688;2023-12-14T04:07:44;8.55;;;3.25;;
28170;SDS011;15458;53.346;-1.688;2023-12-14T04:10:12;9.73;;;3.10;;
28170;SDS011;15458;53.346;-1.688;2023-12-14T04:12:39;10.73;;;3.30;;
28170;SDS011;15458;53.346;-1.688;2023-12-14T04:15:06;6.88;;;3.38;;
28170;SDS011;15458;53.346;-1.688;2023-12-14T04:17:33;9.02;;;3.40;;
28170;SDS011;15458;53.346;-1.688;2023-12-14T04:19:59;12.15;;;3.78;;
28170;SDS011;15458;53.346;-1.688;2023-12-14T04:22:25;8.07;;;3.67;;
28170;SDS011;15458;53.346;-1.688;2023-12-14T04:24:51;9.00;;;3.63;;
28170;SDS011;15458;53.346;-1.688;2023-12-14T04:27:17;8.05;;;2.90;;
28170;SDS011;15458;53.346;-1.688;2023-12-14T04:29:43;14.27;;;3.83;;
28170;SDS011;15458;53.346;-1.688;2023-12-14T04:32:08;8.27;;;3.58;;
28170;SDS011;15458;53.346;-1.688;2023-12-14T04:34:34;10.82;;;4.43;;
28170;SDS011;15458;53.346;-1.688;2023-12-14T04:37:00;10.48;;;3.90;;
28170;SDS011;15458;53.346;-1.688;2023-12-14T04:39:25;10.95;;;4.13;;
28170;SDS011;15458;53.346;-1.688;2023-12-14T04:41:51;10.00;;;3.85;;
28170;SDS011;15458;53.346;-1.688;2023-12-14T04:44:21;9.20;;;5.00;;
28170;SDS011;15458;53.346;-1.688;2023-12-14T04:46:47;11.93;;;3.85;;
28170;SDS011;15458;53.346;-1.688;2023-12-14T04:49:13;15.40;;;4.50;;
28170;SDS011;15458;53.346;-1.688;2023-12-14T04:51:39;9.13;;;4.00;;
28170;SDS011;15458;53.346;-1.688;2023-12-14T04:54:04;7.78;;;3.80;;
28170;SDS011;15458;53.346;-1.688;2023-12-14T04:56:30;13.30;;;5.82;;
28170;SDS011;15458;53.346;-1.688;2023-12-14T04:58:56;9.20;;;4.05;;
28170;SDS011;15458;53.346;-1.688;2023-12-14T05:01:22;7.10;;;3.75;;
28170;SDS011;15458;53.346;-1.688;2023-12-14T05:03:47;12.82;;;4.32;;
28170;SDS011;15458;53.346;-1.688;2023-12-14T05:06:13;7.53;;;3.63;;
28170;SDS011;15458;53.346;-1.688;2023-12-14T05:08:39;12.65;;;4.28;;
28170;SDS011;15458;53.346;-1.688;2023-12-14T05:11:05;8.48;;;3.65;;
28170;SDS011;15458;53.346;-1.688;2023-12-14T05:13:31;12.80;;;4.80;;
28170;SDS011;15458;53.346;-1.688;2023-12-14T05:15:56;6.78;;;3.67;;
28170;SDS011;15458;53.346;-1.688;2023-12-14T05:18:26;9.77;;;3.97;;
28170;SDS011;15458;53.346;-1.688;2023-12-14T05:20:52;12.05;;;5.03;;
28170;SDS011;15458;53.346;-1.688;2023-12-14T05:23:17;15.38;;;5.15;;
28170;SDS011;15458;53.346;-1.688;2023-12-14T05:25:43;9.20;;;3.95;;
28170;SDS011;15458;53.346;-1.688;2023-12-14T05:28:09;9.63;;;4.15;;
28170;SDS011;15458;53.346;-1.688;2023-12-14T05:30:35;8.15;;;4.35;;
28170;SDS011;15458;53.346;-1.688;2023-12-14T05:33:01;11.57;;;4.22;;
28170;SDS011;15458;53.346;-1.688;2023-12-14T05:35:27;14.38;;;4.03;;
28170;SDS011;15458;53.346;-1.688;2023-12-14T05:37:52;9.00;;;4.18;;
28170;SDS011;15458;53.346;-1.688;2023-12-14T05:40:19;8.48;;;3.75;;
28170;SDS011;15458;53.346;-1.688;2023-12-14T05:42:45;10.30;;;4.28;;
28170;SDS011;15458;53.346;-1.688;2023-12-14T05:45:10;13.15;;;4.30;;
28170;SDS011;15458;53.346;-1.688;2023-12-14T05:47:36;11.98;;;3.88;;
28170;SDS011;15458;53.346;-1.688;2023-12-14T05:50:03;8.35;;;3.92;;
28170;SDS011;15458;53.346;-1.688;2023-12-14T05:52:29;11.93;;;4.18;;
28170;SDS011;15458;53.346;-1.688;2023-12-14T05:54:55;9.30;;;4.22;;
28170;SDS011;15458;53.346;-1.688;2023-12-14T05:57:21;13.00;;;4.68;;
28170;SDS011;15458;53.346;-1.688;2023-12-14T05:59:47;10.27;;;4.68;;
28170;SDS011;15458;53.346;-1.688;2023-12-14T06:02:15;10.88;;;3.60;;
28170;SDS011;15458;53.346;-1.688;2023-12-14T06:04:40;10.68;;;3.75;;
28170;SDS011;15458;53.346;-1.688;2023-12-14T06:07:06;8.90;;;3.97;;
28170;SDS011;15458;53.346;-1.688;2023-12-14T06:09:31;9.05;;;3.50;;
28170;SDS011;15458;53.346;-1.688;2023-12-14T06:12:00;7.68;;;2.90;;
28170;SDS011;15458;53.346;-1.688;2023-12-14T06:14:26;8.65;;;2.88;;
28170;SDS011;15458;53.346;-1.688;2023-12-14T06:16:52;7.00;;;2.78;;
28170;SDS011;15458;53.346;-1.688;2023-12-14T06:19:18;11.65;;;3.90;;
28170;SDS011;15458;53.346;-1.688;2023-12-14T06:21:43;9.23;;;3.67;;
28170;SDS011;15458;53.346;-1.688;2023-12-14T06:24:09;7.30;;;3.70;;
28170;SDS011;15458;53.346;-1.688;2023-12-14T06:26:35;8.45;;;3.83;;
28170;SDS011;15458;53.346;-1.688;2023-12-14T06:29:06;11.70;;;4.65;;
28170;SDS011;15458;53.346;-1.688;2023-12-14T06:31:32;11.40;;;4.63;;
28170;SDS011;15458;53.346;-1.688;2023-12-14T06:33:58;10.77;;;4.07;;
28170;SDS011;15458;53.346;-1.688;2023-12-14T06:36:25;12.25;;;3.95;;
28170;SDS011;15458;53.346;-1.688;2023-12-14T06:38:54;8.60;;;4.05;;
28170;SDS011;15458;53.346;-1.688;2023-12-14T06:41:20;8.00;;;3.40;;
28170;SDS011;15458;53.346;-1.688;2023-12-14T06:43:47;8.35;;;3.38;;
28170;SDS011;15458;53.346;-1.688;2023-12-14T06:46:13;8.98;;;3.03;;
28170;SDS011;15458;53.346;-1.688;2023-12-14T06:48:39;5.78;;;3.10;;
28170;SDS011;15458;53.346;-1.688;2023-12-14T06:51:05;7.40;;;2.70;;
28170;SDS011;15458;53.346;-1.688;2023-12-14T06:53:31;7.43;;;2.60;;
28170;SDS011;15458;53.346;-1.688;2023-12-14T06:55:56;6.30;;;2.50;;
28170;SDS011;15458;53.346;-1.688;2023-12-14T06:58:22;6.30;;;2.85;;
28170;SDS011;15458;53.346;-1.688;2023-12-14T07:00:48;8.48;;;2.65;;
28170;SDS011;15458;53.346;-1.688;2023-12-14T07:03:14;6.85;;;3.30;;
28170;SDS011;15458;53.346;-1.688;2023-12-14T07:05:39;5.22;;;2.97;;
28170;SDS011;15458;53.346;-1.688;2023-12-14T07:08:05;6.80;;;2.60;;
28170;SDS011;15458;53.346;-1.688;2023-12-14T07:10:34;5.53;;;3.33;;
28170;SDS011;15458;53.346;-1.688;2023-12-14T07:12:59;5.95;;;2.47;;
28170;SDS011;15458;53.346;-1.688;2023-12-14T07:15:25;5.10;;;2.50;;
28170;SDS011;15458;53.346;-1.688;2023-12-14T07:17:51;8.73;;;3.15;;
28170;SDS011;15458;53.346;-1.688;2023-12-14T07:20:17;5.38;;;2.60;;
28170;SDS011;15458;53.346;-1.688;2023-12-14T07:22:42;6.57;;;2.95;;
28170;SDS011;15458;53.346;-1.688;2023-12-14T07:25:08;4.00;;;2.67;;
28170;SDS011;15458;53.346;-1.688;2023-12-14T07:27:33;9.73;;;2.78;;
28170;SDS011;15458;53.346;-1.688;2023-12-14T07:29:59;6.45;;;2.33;;
28170;SDS011;15458;53.346;-1.688;2023-12-14T07:32:25;4.68;;;2.38;;
28170;SDS011;15458;53.346;-1.688;2023-12-14T07:34:51;8.70;;;2.90;;
28170;SDS011;15458;53.346;-1.688;2023-12-14T07:37:17;13.57;;;5.20;;
28170;SDS011;15458;53.346;-1.688;2023-12-14T07:39:43;6.57;;;2.88;;
28170;SDS011;15458;53.346;-1.688;2023-12-14T07:42:09;8.95;;;3.30;;
28170;SDS011;15458;53.346;-1.688;2023-12-14T07:44:35;9.55;;;3.80;;
28170;SDS011;15458;53.346;-1.688;2023-12-14T07:47:00;9.65;;;3.47;;
28170;SDS011;15458;53.346;-1.688;2023-12-14T07:49:27;8.32;;;3.60;;
28170;SDS011;15458;53.346;-1.688;2023-12-14T07:51:53;11.55;;;4.00;;
28170;SDS011;15458;53.346;-1.688;2023-12-14T07:54:18;8.68;;;3.88;;
28170;SDS011;15458;53.346;-1.688;2023-12-14T07:56:44;9.70;;;3.60;;
28170;SDS011;15458;53.346;-1.688;2023-12-14T07:59:10;12.38;;;4.13;;
28170;SDS011;15458;53.346;-1.688;2023-12-14T08:01:36;18.15;;;5.15;;
28170;SDS011;15458;53.346;-1.688;2023-12-14T08:04:02;12.30;;;4.75;;
28170;SDS011;15458;53.346;-1.688;2023-12-14T08:06:31;12.55;;;4.72;;
28170;SDS011;15458;53.346;-1.688;2023-12-14T08:08:57;12.93;;;5.18;;
28170;SDS011;15458;53.346;-1.688;2023-12-14T08:11:23;11.05;;;5.30;;
28170;SDS011;15458;53.346;-1.688;2023-12-14T08:13:49;10.13;;;5.25;;
28170;SDS011;15458;53.346;-1.688;2023-12-14T08:16:15;13.23;;;5.63;;
28170;SDS011;15458;53.346;-1.688;2023-12-14T08:18:42;11.05;;;4.68;;
28170;SDS011;15458;53.346;-1.688;2023-12-14T08:21:11;9.20;;;4.30;;
28170;SDS011;15458;53.346;-1.688;2023-12-14T08:23:37;9.30;;;4.30;;
28170;SDS011;15458;53.346;-1.688;2023-12-14T08:26:02;9.70;;;4.47;;
28170;SDS011;15458;53.346;-1.688;2023-12-14T08:28:28;8.23;;;4.20;;
28170;SDS011;15458;53.346;-1.688;2023-12-14T08:30:54;11.57;;;4.70;;
28170;SDS011;15458;53.346;-1.688;2023-12-14T08:33:22;9.35;;;4.78;;
28170;SDS011;15458;53.346;-1.688;2023-12-14T08:35:48;14.70;;;5.10;;
28170;SDS011;15458;53.346;-1.688;2023-12-14T08:38:15;13.80;;;4.82;;
28170;SDS011;15458;53.346;-1.688;2023-12-14T08:40:41;10.98;;;4.88;;
28170;SDS011;15458;53.346;-1.688;2023-12-14T08:43:07;18.85;;;5.97;;
28170;SDS011;15458;53.346;-1.688;2023-12-14T08:45:32;30.77;;;7.28;;
28170;SDS011;15458;53.346;-1.688;2023-12-14T08:47:58;8.23;;;4.95;;
28170;SDS011;15458;53.346;-1.688;2023-12-14T08:50:24;8.93;;;4.78;;
28170;SDS011;15458;53.346;-1.688;2023-12-14T08:52:51;9.85;;;5.30;;
28170;SDS011;15458;53.346;-1.688;2023-12-14T08:55:17;15.45;;;5.78;;
28170;SDS011;15458;53.346;-1.688;2023-12-14T08:57:43;13.68;;;5.32;;
28170;SDS011;15458;53.346;-1.688;2023-12-14T09:00:09;17.10;;;5.55;;
28170;SDS011;15458;53.346;-1.688;2023-12-14T09:02:35;9.20;;;5.15;;
28170;SDS011;15458;53.346;-1.688;2023-12-14T09:05:01;10.80;;;5.65;;
28170;SDS011;15458;53.346;-1.688;2023-12-14T09:07:27;8.27;;;5.53;;
28170;SDS011;15458;53.346;-1.688;2023-12-14T09:09:53;9.82;;;5.22;;
28170;SDS011;15458;53.346;-1.688;2023-12-14T09:12:19;9.82;;;4.95;;
28170;SDS011;15458;53.346;-1.688;2023-12-14T09:14:45;8.30;;;5.05;;
28170;SDS011;15458;53.346;-1.688;2023-12-14T09:17:11;10.13;;;5.50;;
28170;SDS011;15458;53.346;-1.688;2023-12-14T09:19:37;7.53;;;5.30;;
28170;SDS011;15458;53.346;-1.688;2023-12-14T09:22:03;13.18;;;5.88;;
28170;SDS011;15458;53.346;-1.688;2023-12-14T09:24:28;10.65;;;5.70;;
28170;SDS011;15458;53.346;-1.688;2023-12-14T09:26:54;9.98;;;5.50;;
28170;SDS011;15458;53.346;-1.688;2023-12-14T09:29:20;10.82;;;6.30;;
28170;SDS011;15458;53.346;-1.688;2023-12-14T09:31:46;14.75;;;6.13;;
28170;SDS011;15458;53.346;-1.688;2023-12-14T09:34:12;11.40;;;6.47;;
28170;SDS011;15458;53.346;-1.688;2023-12-14T09:36:38;11.68;;;7.28;;
28170;SDS011;15458;53.346;-1.688;2023-12-14T09:39:04;8.90;;;6.18;;
28170;SDS011;15458;53.346;-1.688;2023-12-14T09:41:30;11.90;;;6.93;;
28170;SDS011;15458;53.346;-1.688;2023-12-14T09:43:56;8.60;;;5.63;;
28170;SDS011;15458;53.346;-1.688;2023-12-14T09:46:24;11.45;;;6.28;;
28170;SDS011;15458;53.346;-1.688;2023-12-14T09:48:52;11.07;;;6.05;;
28170;SDS011;15458;53.346;-1.688;2023-12-14T09:51:19;10.70;;;5.53;;
28170;SDS011;15458;53.346;-1.688;2023-12-14T09:53:45;10.77;;;6.00;;
28170;SDS011;15458;53.346;-1.688;2023-12-14T09:56:11;10.32;;;6.70;;
28170;SDS011;15458;53.346;-1.688;2023-12-14T09:58:37;9.93;;;6.10;;
28170;SDS011;15458;53.346;-1.688;2023-12-14T10:01:03;7.93;;;5.53;;
28170;SDS011;15458;53.346;-1.688;2023-12-14T10:03:47;11.75;;;5.65;;
28170;SDS011;15458;53.346;-1.688;2023-12-14T10:06:12;7.93;;;5.18;;
28170;SDS011;15458;53.346;-1.688;2023-12-14T10:08:38;8.93;;;5.70;;
28170;SDS011;15458;53.346;-1.688;2023-12-14T10:11:05;8.73;;;5.63;;
28170;SDS011;15458;53.346;-1.688;2023-12-14T10:13:41;8.93;;;5.65;;
28170;SDS011;15458;53.346;-1.688;2023-12-14T10:16:07;10.93;;;5.88;;
28170;SDS011;15458;53.346;-1.688;2023-12-14T10:18:33;8.75;;;5.63;;
28170;SDS011;15458;53.346;-1.688;2023-12-14T10:21:02;10.65;;;6.13;;
28170;SDS011;15458;53.346;-1.688;2023-12-14T10:23:28;8.23;;;5.45;;
28170;SDS011;15458;53.346;-1.688;2023-12-14T10:25:54;7.65;;;4.88;;
28170;SDS011;15458;53.346;-1.688;2023-12-14T10:28:20;9.60;;;5.72;;
28170;SDS011;15458;53.346;-1.688;2023-12-14T10:30:49;10.68;;;5.97;;
28170;SDS011;15458;53.346;-1.688;2023-12-14T10:33:15;8.77;;;6.07;;
28170;SDS011;15458;53.346;-1.688;2023-12-14T10:35:41;8.05;;;5.38;;
28170;SDS011;15458;53.346;-1.688;2023-12-14T10:38:08;9.10;;;5.47;;
28170;SDS011;15458;53.346;-1.688;2023-12-14T10:40:36;8.95;;;5.25;;
28170;SDS011;15458;53.346;-1.688;2023-12-14T10:43:06;7.93;;;4.90;;
28170;SDS011;15458;53.346;-1.688;2023-12-14T10:45:32;7.55;;;4.60;;
28170;SDS011;15458;53.346;-1.688;2023-12-14T10:48:03;8.73;;;5.15;;
28170;SDS011;15458;53.346;-1.688;2023-12-14T10:50:29;8.30;;;4.88;;
28170;SDS011;15458;53.346;-1.688;2023-12-14T10:52:58;7.53;;;5.15;;
28170;SDS011;15458;53.346;-1.688;2023-12-14T10:57:56;7.45;;;5.03;;
28170;SDS011;15458;53.346;-1.688;2023-12-14T11:00:23;8.13;;;4.82;;
28170;SDS011;15458;53.346;-1.688;2023-12-14T11:02:48;8.18;;;5.72;;
28170;SDS011;15458;53.346;-1.688;2023-12-14T11:05:15;9.18;;;5.45;;
28170;SDS011;15458;53.346;-1.688;2023-12-14T11:07:45;8.93;;;5.70;;
28170;SDS011;15458;53.346;-1.688;2023-12-14T11:13:24;11.50;;;6.05;;
28170;SDS011;15458;53.346;-1.688;2023-12-14T11:15:51;9.05;;;5.78;;
28170;SDS011;15458;53.346;-1.688;2023-12-14T11:20:59;9.25;;;6.15;;
28170;SDS011;15458;53.346;-1.688;2023-12-14T11:23:36;10.75;;;5.72;;
28170;SDS011;15458;53.346;-1.688;2023-12-14T11:26:04;8.57;;;5.45;;
28170;SDS011;15458;53.346;-1.688;2023-12-14T11:28:35;7.35;;;4.82;;
28170;SDS011;15458;53.346;-1.688;2023-12-14T11:31:02;8.30;;;5.63;;
28170;SDS011;15458;53.346;-1.688;2023-12-14T11:33:34;10.60;;;5.97;;
28170;SDS011;15458;53.346;-1.688;2023-12-14T11:36:02;9.13;;;5.22;;
28170;SDS011;15458;53.346;-1.688;2023-12-14T11:38:31;10.60;;;5.65;;
28170;SDS011;15458;53.346;-1.688;2023-12-14T11:41:00;9.57;;;6.15;;
28170;SDS011;15458;53.346;-1.688;2023-12-14T11:43:26;8.75;;;5.22;;
28170;SDS011;15458;53.346;-1.688;2023-12-14T11:45:52;13.65;;;7.75;;
28170;SDS011;15458;53.346;-1.688;2023-12-14T11:48:19;18.60;;;9.15;;
28170;SDS011;15458;53.346;-1.688;2023-12-14T11:50:46;16.77;;;8.80;;
28170;SDS011;15458;53.346;-1.688;2023-12-14T11:53:12;19.50;;;8.73;;
28170;SDS011;15458;53.346;-1.688;2023-12-14T11:55:41;14.05;;;8.10;;
28170;SDS011;15458;53.346;-1.688;2023-12-14T11:58:08;13.00;;;7.43;;
28170;SDS011;15458;53.346;-1.688;2023-12-14T12:03:13;17.55;;;8.02;;
28170;SDS011;15458;53.346;-1.688;2023-12-14T12:05:41;15.07;;;7.70;;
28170;SDS011;15458;53.346;-1.688;2023-12-14T12:08:13;13.82;;;7.82;;
28170;SDS011;15458;53.346;-1.688;2023-12-14T12:10:40;14.73;;;8.48;;
28170;SDS011;15458;53.346;-1.688;2023-12-14T12:13:08;16.38;;;8.95;;
28170;SDS011;15458;53.346;-1.688;2023-12-14T12:15:39;17.67;;;9.05;;
28170;SDS011;15458;53.346;-1.688;2023-12-14T12:18:12;12.77;;;7.45;;
28170;SDS011;15458;53.346;-1.688;2023-12-14T12:20:38;16.60;;;8.38;;
28170;SDS011;15458;53.346;-1.688;2023-12-14T12:23:05;16.90;;;8.55;;
28170;SDS011;15458;53.346;-1.688;2023-12-14T12:25:31;18.60;;;8.18;;
28170;SDS011;15458;53.346;-1.688;2023-12-14T12:28:01;12.50;;;7.78;;
28170;SDS011;15458;53.346;-1.688;2023-12-14T12:30:28;12.25;;;7.13;;
28170;SDS011;15458;53.346;-1.688;2023-12-14T12:32:54;14.10;;;7.80;;
28170;SDS011;15458;53.346;-1.688;2023-12-14T12:35:21;17.35;;;8.80;;
28170;SDS011;15458;53.346;-1.688;2023-12-14T12:37:48;15.10;;;8.13;;
28170;SDS011;15458;53.346;-1.688;2023-12-14T12:40:19;15.38;;;7.85;;
28170;SDS011;15458;53.346;-1.688;2023-12-14T12:42:48;15.50;;;8.25;;
28170;SDS011;15458;53.346;-1.688;2023-12-14T12:45:15;16.70;;;9.50;;
28170;SDS011;15458;53.346;-1.688;2023-12-14T12:47:42;14.90;;;8.52;;
28170;SDS011;15458;53.346;-1.688;2023-12-14T12:50:09;17.10;;;8.80;;
28170;SDS011;15458;53.346;-1.688;2023-12-14T12:52:34;15.82;;;8.75;;
28170;SDS011;15458;53.346;-1.688;2023-12-14T12:55:00;16.58;;;9.90;;
28170;SDS011;15458;53.346;-1.688;2023-12-14T12:57:27;16.95;;;9.52;;
28170;SDS011;15458;53.346;-1.688;2023-12-14T12:59:52;15.10;;;8.80;;
28170;SDS011;15458;53.346;-1.688;2023-12-14T13:02:18;14.60;;;8.77;;
28170;SDS011;15458;53.346;-1.688;2023-12-14T13:04:45;13.38;;;8.25;;
28170;SDS011;15458;53.346;-1.688;2023-12-14T13:07:12;29.63;;;13.18;;
28170;SDS011;15458;53.346;-1.688;2023-12-14T13:09:38;22.20;;;12.05;;
28170;SDS011;15458;53.346;-1.688;2023-12-14T13:12:04;27.30;;;14.20;;
28170;SDS011;15458;53.346;-1.688;2023-12-14T13:14:30;23.35;;;13.40;;
28170;SDS011;15458;53.346;-1.688;2023-12-14T13:16:58;23.75;;;12.45;;
28170;SDS011;15458;53.346;-1.688;2023-12-14T13:19:24;20.90;;;11.90;;
28170;SDS011;15458;53.346;-1.688;2023-12-14T13:21:51;23.75;;;10.95;;
28170;SDS011;15458;53.346;-1.688;2023-12-14T13:24:17;18.42;;;10.32;;
28170;SDS011;15458;53.346;-1.688;2023-12-14T13:26:43;15.52;;;7.95;;
28170;SDS011;15458;53.346;-1.688;2023-12-14T13:29:08;13.50;;;8.20;;
28170;SDS011;15458;53.346;-1.688;2023-12-14T13:31:35;16.90;;;9.93;;
28170;SDS011;15458;53.346;-1.688;2023-12-14T13:34:01;18.55;;;10.00;;
28170;SDS011;15458;53.346;-1.688;2023-12-14T13:36:26;15.88;;;8.93;;
28170;SDS011;15458;53.346;-1.688;2023-12-14T13:38:52;26.83;;;12.07;;
28170;SDS011;15458;53.346;-1.688;2023-12-14T13:41:19;27.67;;;13.13;;
28170;SDS011;15458;53.346;-1.688;2023-12-14T13:43:44;28.20;;;14.13;;
28170;SDS011;15458;53.346;-1.688;2023-12-14T13:46:11;39.90;;;10.82;;
28170;SDS011;15458;53.346;-1.688;2023-12-14T13:48:37;33.75;;;7.07;;
28170;SDS011;15458;53.346;-1.688;2023-12-14T13:51:02;38.92;;;8.13;;
28170;SDS011;15458;53.346;-1.688;2023-12-14T13:53:28;28.15;;;6.03;;
28170;SDS011;15458;53.346;-1.688;2023-12-14T13:55:54;40.05;;;7.03;;
28170;SDS011;15458;53.346;-1.688;2023-12-14T13:58:20;30.70;;;6.50;;
28170;SDS011;15458;53.346;-1.688;2023-12-14T14:00:45;30.75;;;5.93;;
28170;SDS011;15458;53.346;-1.688;2023-12-14T14:03:11;33.20;;;6.20;;
28170;SDS011;15458;53.346;-1.688;2023-12-14T14:05:38;36.10;;;5.97;;
28170;SDS011;15458;53.346;-1.688;2023-12-14T14:08:04;36.10;;;5.45;;
28170;SDS011;15458;53.346;-1.688;2023-12-14T14:10:31;29.83;;;4.78;;
28170;SDS011;15458;53.346;-1.688;2023-12-14T14:12:57;35.80;;;5.95;;
28170;SDS011;15458;53.346;-1.688;2023-12-14T14:15:23;22.15;;;4.07;;
28170;SDS011;15458;53.346;-1.688;2023-12-14T14:17:49;34.67;;;4.95;;
28170;SDS011;15458;53.346;-1.688;2023-12-14T14:20:17;38.80;;;4.00;;
28170;SDS011;15458;53.346;-1.688;2023-12-14T14:22:43;31.75;;;3.88;;
28170;SDS011;15458;53.346;-1.688;2023-12-14T14:25:09;33.20;;;4.40;;
28170;SDS011;15458;53.346;-1.688;2023-12-14T14:27:35;38.72;;;4.90;;
28170;SDS011;15458;53.346;-1.688;2023-12-14T14:30:01;37.05;;;6.20;;
28170;SDS011;15458;53.346;-1.688;2023-12-14T14:32:28;34.00;;;5.00;;
28170;SDS011;15458;53.346;-1.688;2023-12-14T14:34:56;36.88;;;6.45;;